Time;durP1;ratioP1;P1;durP2;ratioP2;P2;SDS_P1;SDS_P2;PMS_P1;PMS_P2;Temp;Humidity;BMP_temperature;BMP_pressure;BME280_temperature;BME280_humidity;BME280_pressure;Samples;Min_cycle;Max_cycle;Signal;HPM_P1;HPM_P2
2023/04/06 00:01:28;;;;;;;28.75;15.38;;;-0.50;99.90;;;;;;5056798;28;20035;-82
2023/04/06 00:03:53;;;;;;;27.75;15.13;;;-0.30;99.90;;;;;;5056991;28;20070;-82
2023/04/06 00:06:19;;;;;;;32.03;15.85;;;-0.30;99.90;;;;;;5056927;28;20060;-82
2023/04/06 00:08:45;;;;;;;29.63;14.80;;;-0.30;99.90;;;;;;5056970;28;20032;-82
2023/04/06 00:11:11;;;;;;;25.88;15.05;;;-0.20;99.90;;;;;;5073256;28;20032;-82
2023/04/06 00:13:37;;;;;;;26.48;13.75;;;0.00;99.90;;;;;;5073649;28;20017;-82
2023/04/06 00:16:05;;;;;;;31.58;14.55;;;0.00;99.90;;;;;;5073127;28;20033;-82
2023/04/06 00:18:31;;;;;;;23.95;14.27;;;-0.10;99.90;;;;;;5056659;28;20037;-82
2023/04/06 00:20:56;;;;;;;27.67;14.88;;;-0.30;99.90;;;;;;5056671;28;20427;-82
2023/04/06 00:23:22;;;;;;;27.30;15.57;;;-0.50;99.90;;;;;;5072567;28;20120;-82
2023/04/06 00:25:48;;;;;;;27.13;15.35;;;-0.70;99.90;;;;;;5055583;28;20365;-82
2023/04/06 00:28:14;;;;;;;31.88;17.17;;;-0.90;99.90;;;;;;5074316;28;20375;-81
2023/04/06 00:30:40;;;;;;;31.60;16.50;;;-1.20;99.90;;;;;;5072697;28;20396;-82
2023/04/06 00:33:06;;;;;;;29.10;16.58;;;-1.40;99.90;;;;;;5056051;28;20021;-82
2023/04/06 00:35:32;;;;;;;31.88;16.88;;;-1.60;99.90;;;;;;5055795;28;20039;-82
2023/04/06 00:37:58;;;;;;;30.48;16.77;;;-1.70;99.90;;;;;;5073110;28;20123;-82
2023/04/06 00:40:24;;;;;;;32.75;17.52;;;-1.80;99.90;;;;;;5055869;28;20056;-82
2023/04/06 00:42:50;;;;;;;33.38;17.17;;;-1.90;99.90;;;;;;5056107;28;20025;-82
2023/04/06 00:45:16;;;;;;;32.45;16.75;;;-1.90;99.90;;;;;;5072776;28;20024;-82
2023/04/06 00:47:42;;;;;;;33.42;16.38;;;-1.90;99.90;;;;;;5072827;28;20040;-82
2023/04/06 00:50:08;;;;;;;31.92;17.30;;;-2.00;99.90;;;;;;5055338;28;20025;-82
2023/04/06 00:52:46;;;;;;;30.25;16.95;;;-1.90;99.90;;;;;;5055904;28;20031;-82
2023/04/06 00:55:12;;;;;;;30.40;15.80;;;-1.90;99.90;;;;;;5055680;28;20158;-82
2023/04/06 00:57:41;;;;;;;34.35;16.60;;;-2.00;99.90;;;;;;5056335;28;20479;-82
2023/04/06 01:00:07;;;;;;;28.33;15.48;;;-2.10;99.90;;;;;;5055239;28;20028;-82
2023/04/06 01:02:34;;;;;;;30.08;15.90;;;-2.10;99.90;;;;;;5055790;28;20035;-82
2023/04/06 01:05:00;;;;;;;36.22;16.13;;;-2.10;99.90;;;;;;5055694;28;20107;-82
2023/04/06 01:07:37;;;;;;;31.70;16.73;;;-2.20;99.90;;;;;;5057059;28;20656;-82
2023/04/06 01:10:09;;;;;;;30.10;16.67;;;-2.20;99.90;;;;;;5056660;28;20032;-82
2023/04/06 01:12:38;;;;;;;35.15;18.40;;;-2.20;99.90;;;;;;5055545;28;20032;-82
2023/04/06 01:15:08;;;;;;;33.97;16.77;;;-2.10;99.90;;;;;;5055952;28;20036;-83
2023/04/06 01:17:37;;;;;;;34.88;17.50;;;-2.10;99.90;;;;;;5055304;28;20438;-82
2023/04/06 01:20:10;;;;;;;32.00;17.77;;;-2.00;99.90;;;;;;5072219;28;20024;-82
2023/04/06 01:22:37;;;;;;;27.95;16.80;;;-2.00;99.90;;;;;;5055641;28;20379;-83
2023/04/06 01:25:03;;;;;;;36.33;18.67;;;-1.90;99.90;;;;;;5055092;28;20025;-83
2023/04/06 01:27:39;;;;;;;29.90;17.45;;;-1.80;99.90;;;;;;5057051;28;20112;-83
2023/04/06 01:30:11;;;;;;;32.83;17.33;;;-1.80;99.90;;;;;;5072798;28;20036;-83
2023/04/06 01:32:48;;;;;;;33.92;16.30;;;-1.90;99.90;;;;;;5056770;28;20035;-83
2023/04/06 01:35:19;;;;;;;37.17;17.77;;;-2.00;99.90;;;;;;5055397;28;20047;-82
2023/04/06 01:37:55;;;;;;;33.78;17.63;;;-2.00;99.90;;;;;;5072097;28;20456;-83
2023/04/06 01:40:28;;;;;;;42.53;18.92;;;-2.10;99.90;;;;;;5071795;28;20115;-82
2023/04/06 01:42:54;;;;;;;33.28;17.10;;;-2.10;99.90;;;;;;5055183;28;20491;-83
2023/04/06 01:45:29;;;;;;;35.42;17.65;;;-2.20;99.90;;;;;;5056745;28;20029;-83
2023/04/06 01:48:00;;;;;;;33.78;17.85;;;-2.20;99.90;;;;;;5055980;28;20024;-82
2023/04/06 01:50:28;;;;;;;39.95;18.63;;;-2.20;99.90;;;;;;5055263;28;20387;-82
2023/04/06 01:52:54;;;;;;;31.75;16.77;;;-2.20;99.90;;;;;;5055491;28;20025;-83
2023/04/06 01:55:21;;;;;;;31.45;17.45;;;-2.20;99.90;;;;;;5071462;28;20024;-82
2023/04/06 01:58:16;;;;;;;36.58;18.83;;;-2.30;99.90;;;;;;5023211;28;20394;-82
2023/04/06 02:00:42;;;;;;;34.88;18.40;;;-2.20;99.90;;;;;;5071789;28;20500;-82
2023/04/06 02:03:08;;;;;;;32.53;17.67;;;-2.10;99.90;;;;;;5055507;28;20028;-82
2023/04/06 02:05:37;;;;;;;34.28;18.02;;;-2.20;99.90;;;;;;5054935;28;20384;-83
2023/04/06 02:08:13;;;;;;;35.92;18.15;;;-2.30;99.90;;;;;;5056209;28;20031;-83
2023/04/06 02:10:39;;;;;;;35.85;17.77;;;-2.30;99.90;;;;;;5071625;28;20029;-82
2023/04/06 02:13:15;;;;;;;38.20;17.33;;;-2.40;99.90;;;;;;5071862;28;20020;-83
2023/04/06 02:15:46;;;;;;;39.10;18.20;;;-2.30;99.90;;;;;;5055666;28;20017;-83
2023/04/06 02:18:12;;;;;;;32.97;17.08;;;-2.30;99.90;;;;;;5071951;28;20035;-82
2023/04/06 02:20:37;;;;;;;34.35;17.77;;;-2.30;99.90;;;;;;5054908;28;20075;-82
2023/04/06 02:23:03;;;;;;;32.60;17.48;;;-2.40;99.90;;;;;;5071089;28;20480;-82
2023/04/06 02:25:29;;;;;;;36.25;18.60;;;-2.50;99.90;;;;;;5054757;28;20028;-82
2023/04/06 02:28:01;;;;;;;34.05;19.52;;;-2.60;99.90;;;;;;5054942;28;20098;-82
2023/04/06 02:30:29;;;;;;;33.63;17.48;;;-2.60;99.90;;;;;;5054817;28;20024;-82
2023/04/06 02:32:55;;;;;;;35.40;19.10;;;-2.60;99.90;;;;;;5054881;28;20032;-82
2023/04/06 02:35:22;;;;;;;33.63;18.27;;;-2.40;99.90;;;;;;5054428;28;20040;-82
2023/04/06 02:37:52;;;;;;;31.58;18.13;;;-2.50;99.90;;;;;;5055260;28;20082;-82
2023/04/06 02:40:19;;;;;;;31.77;17.52;;;-2.50;99.90;;;;;;5054482;28;20062;-82
2023/04/06 02:42:45;;;;;;;34.40;16.98;;;-2.50;99.90;;;;;;5054570;28;20013;-82
2023/04/06 02:45:16;;;;;;;37.15;18.58;;;-2.60;99.90;;;;;;5055470;28;20069;-82
2023/04/06 02:47:45;;;;;;;37.85;19.13;;;-2.60;99.90;;;;;;5056297;28;20024;-82
2023/04/06 02:50:14;;;;;;;35.45;17.90;;;-2.60;99.90;;;;;;5057650;28;20086;-82
2023/04/06 02:52:47;;;;;;;38.38;19.38;;;-2.60;99.90;;;;;;5058242;28;20115;-82
2023/04/06 02:55:13;;;;;;;35.03;19.70;;;-2.60;99.90;;;;;;5057632;28;20116;-81
2023/04/06 02:57:38;;;;;;;35.33;19.05;;;-2.60;99.90;;;;;;5074213;28;20021;-82
2023/04/06 03:00:05;;;;;;;37.90;19.60;;;-2.60;99.90;;;;;;5057334;28;20055;-82
2023/04/06 03:02:38;;;;;;;47.92;21.88;;;-2.70;99.90;;;;;;5051017;28;20036;-81
2023/04/06 03:05:08;;;;;;;42.65;20.88;;;-2.70;99.90;;;;;;5058530;28;20021;-82
2023/04/06 03:07:38;;;;;;;42.00;20.45;;;-2.70;99.90;;;;;;5091248;28;20029;-82
2023/04/06 03:10:06;;;;;;;39.92;20.90;;;-2.70;99.90;;;;;;5057901;28;20016;-82
2023/04/06 03:12:33;;;;;;;36.53;18.83;;;-2.80;99.90;;;;;;5057931;28;20476;-82
2023/04/06 03:15:25;;;;;;;39.72;20.50;;;-2.80;99.90;;;;;;5058964;28;20032;-82
2023/04/06 03:17:58;;;;;;;41.92;19.55;;;-2.90;99.90;;;;;;5058305;28;20028;-82
2023/04/06 03:20:33;;;;;;;42.53;19.52;;;-2.90;99.90;;;;;;5073748;28;20039;-82
2023/04/06 03:22:59;;;;;;;43.72;21.23;;;-2.90;99.90;;;;;;5056950;28;20024;-82
2023/04/06 03:25:30;;;;;;;40.55;20.48;;;-2.90;99.90;;;;;;5073329;28;20024;-82
2023/04/06 03:27:59;;;;;;;40.70;20.52;;;-2.90;99.90;;;;;;5057890;28;20025;-83
2023/04/06 03:30:26;;;;;;;41.95;20.00;;;-2.90;99.90;;;;;;5057256;28;20127;-83
2023/04/06 03:32:52;;;;;;;45.05;21.75;;;-2.90;99.90;;;;;;5057333;28;20024;-83
2023/04/06 03:35:21;;;;;;;39.72;20.77;;;-3.00;99.90;;;;;;5057510;28;20509;-82
2023/04/06 03:37:46;;;;;;;41.47;20.73;;;-3.00;99.90;;;;;;5073566;28;20116;-82
2023/04/06 03:40:13;;;;;;;45.22;20.33;;;-3.10;99.90;;;;;;5056603;28;20059;-82
2023/04/06 03:42:39;;;;;;;39.90;20.20;;;-3.00;99.90;;;;;;5056772;28;20037;-82
2023/04/06 03:45:13;;;;;;;40.38;21.27;;;-3.00;99.90;;;;;;5057522;28;20085;-83
2023/04/06 03:47:44;;;;;;;44.03;20.67;;;-3.00;99.90;;;;;;5057598;28;20029;-83
2023/04/06 03:50:10;;;;;;;43.80;20.67;;;-3.00;99.90;;;;;;5056894;28;20024;-82
2023/04/06 03:52:36;;;;;;;42.33;20.30;;;-3.00;99.90;;;;;;5056530;28;20038;-82
2023/04/06 03:55:02;;;;;;;41.72;20.88;;;-3.00;99.90;;;;;;5056289;28;20032;-82
2023/04/06 03:57:28;;;;;;;40.13;20.63;;;-2.90;99.90;;;;;;5056853;28;20037;-83
2023/04/06 03:59:54;;;;;;;42.38;21.13;;;-3.00;99.90;;;;;;5056204;28;20028;-82
2023/04/06 04:02:19;;;;;;;39.13;20.58;;;-3.00;99.90;;;;;;5055972;28;20521;-82
2023/04/06 04:05:32;;;;;;;39.92;19.95;;;-3.00;99.90;;;;;;5072685;28;20027;-82
2023/04/06 04:07:58;;;;;;;43.50;20.92;;;-3.00;99.90;;;;;;5056647;28;20027;-83
2023/04/06 04:10:26;;;;;;;42.33;21.77;;;-3.00;99.90;;;;;;5073084;28;20043;-83
2023/04/06 04:12:52;;;;;;;39.22;19.42;;;-3.00;99.90;;;;;;5056435;28;20024;-83
2023/04/06 04:15:17;;;;;;;41.63;20.90;;;-3.00;99.90;;;;;;5056434;28;20035;-82
2023/04/06 04:17:46;;;;;;;37.42;19.00;;;-3.10;99.90;;;;;;5055752;28;20108;-82
2023/04/06 04:20:13;;;;;;;41.13;20.05;;;-3.10;99.90;;;;;;5056312;28;20017;-83
2023/04/06 04:22:39;;;;;;;38.42;19.77;;;-3.00;99.90;;;;;;5073089;28;20032;-83
2023/04/06 04:25:05;;;;;;;43.33;21.90;;;-3.00;99.90;;;;;;5072884;28;20115;-82
2023/04/06 04:27:33;;;;;;;48.40;20.88;;;-2.90;99.90;;;;;;5056469;28;20028;-82
2023/04/06 04:29:59;;;;;;;37.83;19.90;;;-2.70;99.90;;;;;;5056376;28;20040;-82
2023/04/06 04:32:27;;;;;;;42.80;21.13;;;-2.70;99.90;;;;;;5054297;28;20079;-82
2023/04/06 04:34:54;;;;;;;42.83;22.10;;;-2.80;99.90;;;;;;5072665;28;20395;-83
2023/04/06 04:37:31;;;;;;;40.15;21.55;;;-2.70;99.90;;;;;;5075557;28;20036;-82
2023/04/06 04:39:57;;;;;;;39.97;19.85;;;-2.70;99.90;;;;;;5072785;28;20028;-83
2023/04/06 04:42:23;;;;;;;44.72;20.98;;;-2.80;99.90;;;;;;5071348;28;20029;-82
2023/04/06 04:44:52;;;;;;;41.72;20.88;;;-3.00;99.90;;;;;;5071909;28;20380;-82
2023/04/06 04:47:29;;;;;;;42.47;20.42;;;-3.10;99.90;;;;;;5057330;28;20077;-83
2023/04/06 04:49:56;;;;;;;41.78;21.20;;;-3.10;99.90;;;;;;5055833;28;20027;-82
2023/04/06 04:52:23;;;;;;;37.83;19.60;;;-3.00;99.90;;;;;;5069735;28;20032;-86
2023/04/06 04:55:09;;;;;;;47.58;23.23;;;-3.00;99.90;;;;;;5065678;28;20031;-85
2023/04/06 04:57:35;;;;;;;40.90;21.80;;;-3.00;99.90;;;;;;5060407;28;20025;-85
2023/04/06 05:00:03;;;;;;;43.95;22.52;;;-3.00;99.90;;;;;;5057087;28;20367;-86
2023/04/06 05:02:31;;;;;;;47.25;23.02;;;-2.90;99.90;;;;;;5061549;28;20075;-86
2023/04/06 05:05:10;;;;;;;43.03;22.38;;;-2.90;99.90;;;;;;5052791;28;20021;-86
2023/04/06 05:07:38;;;;;;;49.50;22.88;;;-2.90;99.90;;;;;;5056644;28;20032;-85
2023/04/06 05:10:42;;;;;;;44.08;22.42;;;-2.90;99.90;;;;;;5056515;28;20115;-85
2023/04/06 05:13:08;;;;;;;79.43;32.03;;;-2.80;99.90;;;;;;5056814;28;20059;-85
2023/04/06 05:15:40;;;;;;;54.05;24.88;;;-2.60;99.90;;;;;;5056252;28;20420;-86
2023/04/06 05:18:17;;;;;;;55.70;25.15;;;-2.50;99.90;;;;;;5065219;28;20024;-86
2023/04/06 05:20:45;;;;;;;46.50;21.60;;;-2.50;99.90;;;;;;5056898;28;20491;-85
2023/04/06 05:23:11;;;;;;;45.55;22.00;;;-2.50;99.90;;;;;;5056197;28;20055;-85
2023/04/06 05:25:37;;;;;;;45.65;20.30;;;-2.50;99.90;;;;;;5055718;28;20033;-85
2023/04/06 05:28:14;;;;;;;41.78;21.52;;;-2.50;99.90;;;;;;5057645;28;20107;-85
2023/04/06 05:30:40;;;;;;;42.85;20.60;;;-2.50;99.90;;;;;;5055540;28;20020;-86
2023/04/06 05:33:09;;;;;;;41.78;20.10;;;-2.40;99.90;;;;;;5056560;28;20032;-85
2023/04/06 05:35:54;;;;;;;48.05;22.05;;;-2.30;99.90;;;;;;5071522;28;20032;-86
2023/04/06 05:38:20;;;;;;;39.80;20.30;;;-2.30;99.90;;;;;;5056184;28;20028;-86
2023/04/06 05:41:41;;;;;;;49.30;21.02;;;-2.20;99.90;;;;;;5056116;28;20408;-84
2023/04/06 05:44:09;;;;;;;42.13;21.45;;;-2.00;99.90;;;;;;5056594;28;20060;-85
2023/04/06 05:46:35;;;;;;;41.88;20.95;;;-1.90;99.90;;;;;;5055959;28;20032;-85
2023/04/06 05:49:01;;;;;;;48.58;21.63;;;-1.80;99.90;;;;;;5055947;28;20028;-85
2023/04/06 05:51:30;;;;;;;41.78;21.00;;;-1.60;99.90;;;;;;5072272;28;20033;-85
2023/04/06 05:53:57;;;;;;;38.45;19.75;;;-1.40;99.90;;;;;;5072872;28;20028;-86
2023/04/06 05:56:25;;;;;;;40.30;21.50;;;-1.30;99.90;;;;;;5056312;28;20041;-85
2023/04/06 05:58:50;;;;;;;40.72;19.98;;;-1.20;99.90;;;;;;5089459;28;20024;-86
2023/04/06 06:01:22;;;;;;;37.85;19.20;;;-1.10;99.90;;;;;;5056283;28;20095;-86
2023/04/06 06:03:48;;;;;;;37.58;19.55;;;-1.00;99.90;;;;;;5055595;28;20029;-84
2023/04/06 06:06:15;;;;;;;37.50;18.67;;;-0.80;99.90;;;;;;5056014;28;20017;-86
2023/04/06 06:09:06;;;;;;;36.33;19.42;;;-0.70;99.90;;;;;;5060174;28;20017;-85
2023/04/06 06:11:37;;;;;;;32.95;17.83;;;-0.50;99.90;;;;;;5072846;28;20060;-85
2023/04/06 06:14:04;;;;;;;32.30;17.20;;;-0.40;99.90;;;;;;5071776;28;20472;-85
2023/04/06 06:16:33;;;;;;;37.85;18.23;;;-0.30;99.90;;;;;;5056259;28;20032;-85
2023/04/06 06:18:59;;;;;;;38.03;17.90;;;0.00;99.90;;;;;;5072133;28;20043;-85
2023/04/06 06:21:26;;;;;;;47.83;21.33;;;0.10;99.90;;;;;;5072760;28;20028;-85
2023/04/06 06:23:53;;;;;;;55.45;23.00;;;0.30;99.90;;;;;;5059130;28;20051;-85
2023/04/06 06:26:20;;;;;;;58.08;24.20;;;0.40;99.90;;;;;;5059578;28;20066;-86
2023/04/06 06:28:46;;;;;;;38.95;17.95;;;0.60;99.90;;;;;;5075406;28;20062;-85
2023/04/06 06:31:13;;;;;;;42.83;16.67;;;0.80;99.90;;;;;;5075786;28;20050;-86
2023/04/06 06:33:39;;;;;;;36.08;18.33;;;1.00;99.90;;;;;;5059690;28;20028;-86
2023/04/06 06:36:06;;;;;;;36.53;17.25;;;1.30;99.90;;;;;;5059449;28;20086;-85
2023/04/06 06:38:31;;;;;;;31.92;17.88;;;1.40;99.90;;;;;;5058923;28;20071;-86
2023/04/06 06:40:57;;;;;;;29.08;17.25;;;1.60;99.90;;;;;;5075733;28;20024;-85
2023/04/06 06:43:26;;;;;;;28.88;16.45;;;1.70;99.90;;;;;;5059996;28;20051;-86
2023/04/06 06:45:58;;;;;;;31.67;16.60;;;1.90;99.90;;;;;;5060020;28;20020;-85
2023/04/06 06:48:24;;;;;;;30.25;17.20;;;2.00;99.90;;;;;;5076034;28;20017;-85
2023/04/06 06:50:50;;;;;;;33.45;17.27;;;2.10;99.90;;;;;;5059246;28;20077;-86
2023/04/06 06:53:16;;;;;;;32.20;17.38;;;2.20;99.90;;;;;;5059125;28;20487;-85
2023/04/06 06:56:04;;;;;;;37.13;17.33;;;2.30;99.90;;;;;;5059067;28;20024;-86
2023/04/06 06:58:31;;;;;;;43.47;19.17;;;2.50;99.90;;;;;;5055095;28;20399;-86
2023/04/06 07:00:59;;;;;;;37.20;18.23;;;2.60;99.90;;;;;;5075945;28;20031;-85
2023/04/06 07:03:26;;;;;;;44.25;22.00;;;2.70;99.90;;;;;;5054476;28;20063;-85
2023/04/06 07:05:54;;;;;;;32.42;19.27;;;2.80;99.90;;;;;;5058305;28;20052;-85
2023/04/06 07:08:21;;;;;;;73.70;26.60;;;3.00;99.90;;;;;;5058797;28;20021;-86
2023/04/06 07:10:48;;;;;;;55.10;21.98;;;3.10;99.90;;;;;;5079779;28;20025;-83
2023/04/06 07:13:21;;;;;;;49.72;22.08;;;3.20;99.90;;;;;;5058186;28;20029;-86
2023/04/06 07:15:48;;;;;;;57.08;25.30;;;3.30;99.90;;;;;;5058212;28;20043;-86
2023/04/06 07:18:14;;;;;;;41.88;19.88;;;3.40;99.90;;;;;;5057794;28;20025;-84
2023/04/06 07:20:40;;;;;;;63.35;24.35;;;3.50;99.90;;;;;;5057860;28;20070;-85
2023/04/06 07:23:06;;;;;;;58.20;24.75;;;3.60;99.90;;;;;;5057905;28;20056;-84
2023/04/06 07:25:32;;;;;;;43.10;21.17;;;3.80;99.90;;;;;;5074692;28;20013;-85
2023/04/06 07:27:58;;;;;;;40.78;19.63;;;3.90;99.90;;;;;;5058434;28;20029;-84
2023/04/06 07:30:28;;;;;;;38.45;18.98;;;4.00;99.90;;;;;;5058690;28;20024;-86
2023/04/06 07:32:58;;;;;;;34.60;18.15;;;4.20;99.90;;;;;;5073916;28;20496;-86
2023/04/06 07:35:26;;;;;;;43.35;19.92;;;4.20;99.90;;;;;;5057814;28;20025;-85
2023/04/06 07:37:53;;;;;;;43.25;20.35;;;4.20;99.90;;;;;;5057686;28;20032;-85
2023/04/06 07:40:19;;;;;;;30.17;15.40;;;4.30;99.90;;;;;;5057708;28;20445;-85
2023/04/06 07:42:46;;;;;;;25.98;15.43;;;4.40;99.90;;;;;;5057204;28;20369;-86
2023/04/06 07:45:12;;;;;;;30.70;16.52;;;4.50;99.90;;;;;;5057690;28;20017;-85
2023/04/06 07:47:38;;;;;;;29.95;17.85;;;4.50;99.90;;;;;;5057388;28;20024;-85
2023/04/06 07:50:05;;;;;;;31.05;16.52;;;4.60;99.90;;;;;;5074362;28;20021;-86
2023/04/06 07:52:32;;;;;;;27.10;15.82;;;4.70;99.90;;;;;;5059577;28;20028;-85
2023/04/06 07:54:59;;;;;;;24.45;14.95;;;4.70;99.90;;;;;;5057889;28;20021;-85
2023/04/06 07:57:25;;;;;;;33.90;18.10;;;4.80;99.90;;;;;;5074081;28;20035;-85
2023/04/06 07:59:51;;;;;;;24.70;15.82;;;4.80;99.90;;;;;;5073629;28;20025;-85
2023/04/06 08:02:17;;;;;;;25.55;14.88;;;4.70;99.90;;;;;;5074292;28;20406;-85
2023/04/06 08:04:43;;;;;;;27.55;15.60;;;4.80;99.90;;;;;;5075300;28;20410;-85
2023/04/06 08:07:09;;;;;;;26.13;14.30;;;4.80;99.90;;;;;;5057466;28;20036;-85
2023/04/06 08:09:35;;;;;;;26.85;15.63;;;4.90;99.90;;;;;;5073732;28;20025;-85
2023/04/06 08:12:01;;;;;;;26.48;14.48;;;5.00;99.90;;;;;;5075112;28;20021;-85
2023/04/06 08:14:27;;;;;;;25.65;15.10;;;5.00;99.90;;;;;;5073516;28;20028;-85
2023/04/06 08:16:53;;;;;;;27.58;16.23;;;5.10;99.90;;;;;;5073343;28;20035;-86
2023/04/06 08:19:19;;;;;;;33.88;16.77;;;5.20;99.90;;;;;;5074640;28;20499;-85
2023/04/06 08:21:47;;;;;;;27.38;14.80;;;5.30;99.90;;;;;;5090188;28;20035;-85
2023/04/06 08:24:14;;;;;;;21.00;12.63;;;5.40;99.90;;;;;;5056940;28;20020;-85
2023/04/06 08:26:40;;;;;;;23.83;14.18;;;5.50;99.90;;;;;;5075184;28;20109;-85
2023/04/06 08:29:09;;;;;;;21.25;12.55;;;5.70;99.90;;;;;;5057108;28;20025;-85
2023/04/06 08:31:36;;;;;;;22.58;12.88;;;5.80;99.90;;;;;;5073599;28;20036;-84
2023/04/06 08:34:05;;;;;;;27.17;14.35;;;5.90;99.90;;;;;;5056878;28;20020;-85
2023/04/06 08:36:31;;;;;;;26.33;14.85;;;6.00;99.90;;;;;;5073106;28;20078;-85
2023/04/06 08:38:57;;;;;;;23.45;15.18;;;6.10;99.90;;;;;;5072969;28;20024;-85
2023/04/06 08:41:23;;;;;;;27.35;14.00;;;6.20;99.90;;;;;;5056175;28;20028;-85
2023/04/06 08:43:54;;;;;;;20.05;13.20;;;6.30;99.90;;;;;;5072816;28;20061;-85
2023/04/06 08:46:21;;;;;;;25.08;13.70;;;6.30;99.90;;;;;;5055932;28;20021;-85
2023/04/06 08:48:50;;;;;;;21.85;13.98;;;6.50;99.90;;;;;;5073389;28;20039;-86
2023/04/06 08:51:18;;;;;;;21.90;12.98;;;6.70;99.90;;;;;;5059223;28;20051;-85
2023/04/06 08:53:44;;;;;;;21.25;12.38;;;6.80;99.90;;;;;;5073298;28;20077;-86
2023/04/06 08:56:11;;;;;;;22.23;13.50;;;7.60;99.90;;;;;;5072940;28;20379;-85
2023/04/06 08:58:40;;;;;;;19.75;11.30;;;8.90;99.90;;;;;;5090059;28;20411;-86
2023/04/06 09:01:08;;;;;;;19.80;11.80;;;10.30;96.90;;;;;;5056281;28;20119;-86
2023/04/06 09:03:38;;;;;;;20.73;11.27;;;10.90;91.00;;;;;;5056888;28;20037;-86
2023/04/06 09:06:04;;;;;;;16.70;11.02;;;11.70;86.40;;;;;;5056686;28;20472;-85
2023/04/06 09:08:30;;;;;;;18.15;11.60;;;11.60;81.70;;;;;;5073101;28;20357;-86
2023/04/06 09:10:56;;;;;;;19.98;12.00;;;12.30;79.30;;;;;;5055852;28;20138;-86
2023/04/06 09:13:22;;;;;;;19.48;11.23;;;13.90;74.80;;;;;;5056061;28;20094;-84
2023/04/06 09:16:06;;;;;;;20.38;11.15;;;13.60;68.10;;;;;;5056456;28;20482;-85
2023/04/06 09:18:32;;;;;;;20.88;11.57;;;12.80;67.00;;;;;;5056144;28;20032;-85
2023/04/06 09:21:04;;;;;;;16.40;10.23;;;12.60;68.60;;;;;;5055870;28;20056;-86
2023/04/06 09:23:30;;;;;;;16.75;11.00;;;12.50;68.60;;;;;;5056422;28;20483;-86
2023/04/06 09:26:16;;;;;;;18.65;12.38;;;12.30;67.60;;;;;;5056163;28;20468;-85
2023/04/06 09:28:50;;;;;;;15.13;10.52;;;12.10;73.70;;;;;;5056145;28;20028;-86
2023/04/06 09:31:21;;;;;;;17.65;10.32;;;12.60;68.70;;;;;;5073798;28;20044;-86
2023/04/06 09:33:47;;;;;;;16.55;10.43;;;12.90;66.20;;;;;;5056010;28;20434;-86
2023/04/06 09:36:15;;;;;;;19.27;9.80;;;12.80;63.80;;;;;;5059952;28;20020;-85
2023/04/06 09:39:00;;;;;;;16.63;10.05;;;12.40;64.80;;;;;;5055648;28;20090;-85
2023/04/06 09:41:30;;;;;;;16.98;9.63;;;11.50;65.00;;;;;;5072489;28;20086;-85
2023/04/06 09:44:10;;;;;;;14.15;9.38;;;11.30;68.50;;;;;;5055921;28;20115;-85
2023/04/06 09:46:40;;;;;;;16.65;10.05;;;11.20;66.80;;;;;;5055575;28;20460;-86
2023/04/06 09:49:08;;;;;;;13.20;9.25;;;11.20;66.60;;;;;;5056075;28;20029;-85
2023/04/06 09:51:40;;;;;;;17.83;9.68;;;11.40;68.40;;;;;;5055552;28;20047;-86
2023/04/06 09:54:07;;;;;;;15.88;9.70;;;11.40;64.90;;;;;;5072182;28;20027;-86
2023/04/06 09:56:45;;;;;;;19.20;9.45;;;11.70;66.90;;;;;;5073018;28;20050;-86
2023/04/06 09:59:43;;;;;;;16.20;8.38;;;11.80;65.30;;;;;;5076431;28;20025;-86
2023/04/06 10:02:34;;;;;;;17.83;10.13;;;12.30;63.40;;;;;;5076710;28;20040;-86
2023/04/06 10:05:12;;;;;;;13.68;9.50;;;12.50;64.70;;;;;;5075141;28;20100;-85
2023/04/06 10:07:40;;;;;;;12.55;9.15;;;13.00;63.30;;;;;;5059579;28;20037;-86
2023/04/06 10:10:06;;;;;;;20.67;10.95;;;13.20;62.80;;;;;;5093243;28;20428;-86
2023/04/06 10:12:32;;;;;;;24.63;13.90;;;13.60;62.20;;;;;;5075857;28;20034;-86
2023/04/06 10:14:58;;;;;;;34.40;19.38;;;14.00;60.50;;;;;;5076429;28;20420;-86
2023/04/06 10:21:15;;;;;;;15.85;10.20;;;13.30;63.50;;;;;;5069570;28;20541;-86
2023/04/06 10:24:01;;;;;;;17.38;10.02;;;14.50;61.10;;;;;;5075454;28;20036;-86
2023/04/06 10:26:27;;;;;;;19.17;11.63;;;15.00;60.30;;;;;;5053011;28;20490;-85
2023/04/06 10:32:38;;;;;;;19.02;10.70;;;14.60;59.60;;;;;;5072873;28;20039;-85
2023/04/06 10:35:09;;;;;;;17.67;11.52;;;15.00;59.60;;;;;;5075500;28;20039;-86
2023/04/06 10:38:02;;;;;;;13.67;9.77;;;15.10;58.80;;;;;;5059329;28;20119;-85
2023/04/06 10:40:28;;;;;;;17.63;11.63;;;15.00;57.30;;;;;;5058689;28;20317;-86
2023/04/06 10:42:55;;;;;;;22.48;12.38;;;14.80;57.60;;;;;;5092345;28;20060;-86
2023/04/06 10:45:22;;;;;;;17.25;11.57;;;14.70;57.40;;;;;;5059097;28;20029;-86
2023/04/06 10:47:48;;;;;;;15.65;11.25;;;14.40;59.90;;;;;;5075337;28;20424;-85
2023/04/06 10:50:16;;;;;;;18.13;11.73;;;14.20;59.80;;;;;;5075005;28;20074;-85
2023/04/06 10:52:43;;;;;;;15.98;11.27;;;14.20;60.60;;;;;;5058955;28;20105;-85
2023/04/06 10:55:12;;;;;;;20.88;10.80;;;14.30;59.40;;;;;;5059166;28;20119;-85
2023/04/06 10:57:37;;;;;;;23.52;11.90;;;13.70;59.70;;;;;;5075502;28;20087;-85
2023/04/06 11:00:09;;;;;;;17.33;12.23;;;13.30;59.90;;;;;;5058985;28;20024;-85
2023/04/06 11:02:37;;;;;;;;;;;13.30;61.70;;;;;;5059344;28;20128;-85
2023/04/06 11:05:03;;;;;;;19.48;12.55;;;13.10;59.80;;;;;;5072592;28;19917;-85
2023/04/06 11:07:30;;;;;;;48.60;22.30;;;13.40;62.20;;;;;;5074794;28;20032;-85
2023/04/06 11:09:56;;;;;;;20.55;12.38;;;13.70;61.10;;;;;;5057885;28;20024;-85
2023/04/06 11:12:27;;;;;;;20.15;12.85;;;13.50;61.10;;;;;;5075401;28;20032;-85
2023/04/06 11:15:04;;;;;;;25.08;15.45;;;13.50;60.70;;;;;;5058797;28;20033;-85
2023/04/06 11:17:35;;;;;;;17.08;11.88;;;13.70;60.70;;;;;;5075200;28;20491;-85
2023/04/06 11:20:02;;;;;;;;;;;13.00;58.10;;;;;;5058961;28;20033;-85
2023/04/06 11:22:28;;;;;;;19.10;11.98;;;13.30;59.30;;;;;;5061799;28;19916;-85
2023/04/06 11:25:06;;;;;;;18.63;11.95;;;14.10;59.60;;;;;;5075494;28;20155;-85
2023/04/06 11:27:32;;;;;;;20.45;12.85;;;14.60;59.00;;;;;;5059496;28;20047;-86
2023/04/06 11:30:00;;;;;;;17.88;11.93;;;14.90;56.30;;;;;;5075714;28;20209;-86
2023/04/06 11:32:26;;;;;;;15.90;11.38;;;15.20;56.30;;;;;;5058494;28;20040;-85
2023/04/06 11:34:51;;;;;;;18.90;12.70;;;15.10;57.00;;;;;;5074691;28;20407;-85
2023/04/06 11:37:17;;;;;;;16.65;12.18;;;15.50;56.70;;;;;;5058062;28;20228;-86
2023/04/06 11:39:51;;;;;;;20.50;12.45;;;15.50;56.50;;;;;;5074596;28;20123;-85
2023/04/06 11:42:29;;;;;;;18.75;12.35;;;15.20;57.20;;;;;;5074408;28;20063;-85
2023/04/06 11:44:57;;;;;;;17.65;13.30;;;15.50;57.60;;;;;;5074687;28;20032;-84
2023/04/06 11:47:37;;;;;;;17.90;11.82;;;14.60;57.20;;;;;;5062418;28;20487;-84
2023/04/06 11:50:11;;;;;;;20.70;14.27;;;14.90;58.70;;;;;;5057439;28;20379;-84
2023/04/06 11:52:38;;;;;;;19.33;12.80;;;14.70;58.80;;;;;;5057952;28;20391;-85
2023/04/06 11:55:36;;;;;;;15.45;12.13;;;14.30;57.10;;;;;;5074765;28;20036;-85
2023/04/06 11:58:02;;;;;;;17.27;11.77;;;13.50;57.80;;;;;;5073991;28;20043;-85
2023/04/06 12:00:34;;;;;;;18.80;12.32;;;14.10;59.50;;;;;;5075568;28;20445;-85
2023/04/06 12:03:00;;;;;;;17.20;12.38;;;14.70;58.20;;;;;;5074338;28;20101;-85
2023/04/06 12:05:26;;;;;;;19.50;13.30;;;14.60;56.20;;;;;;5073983;28;20016;-84
2023/04/06 12:07:51;;;;;;;22.92;12.60;;;13.90;57.10;;;;;;5057552;28;20039;-85
2023/04/06 12:10:17;;;;;;;21.30;13.32;;;13.80;57.00;;;;;;5073788;28;20025;-85
2023/04/06 12:12:43;;;;;;;19.75;12.32;;;14.30;58.80;;;;;;5073771;28;20057;-85
2023/04/06 12:15:09;;;;;;;19.25;12.70;;;14.50;58.40;;;;;;5056951;28;20055;-86
2023/04/06 12:17:35;;;;;;;17.23;12.95;;;14.50;58.10;;;;;;5073459;28;20375;-85
2023/04/06 12:20:02;;;;;;;19.70;12.90;;;14.70;58.10;;;;;;5057091;28;20044;-86
2023/04/06 12:22:28;;;;;;;20.55;13.02;;;14.70;58.40;;;;;;5073361;28;20518;-86
2023/04/06 12:24:55;;;;;;;21.13;12.40;;;15.00;55.40;;;;;;5090667;28;20045;-86
2023/04/06 12:27:21;;;;;;;22.50;12.57;;;15.40;56.60;;;;;;5056899;28;20086;-85
2023/04/06 12:29:47;;;;;;;22.95;13.65;;;15.30;56.00;;;;;;5073585;28;20415;-86
2023/04/06 12:32:13;;;;;;;20.05;13.65;;;14.80;56.30;;;;;;5056720;28;20070;-85
2023/04/06 12:34:39;;;;;;;21.10;13.35;;;14.70;55.90;;;;;;5073633;28;20115;-85
2023/04/06 12:37:04;;;;;;;21.48;12.68;;;14.70;58.00;;;;;;5056481;28;20028;-85
2023/04/06 12:39:30;;;;;;;25.77;13.38;;;14.10;56.50;;;;;;5057412;28;20032;-85
2023/04/06 12:41:57;;;;;;;20.70;13.27;;;14.00;57.80;;;;;;5056753;28;20040;-85
2023/04/06 12:44:23;;;;;;;18.92;12.77;;;14.00;58.50;;;;;;5056718;28;20118;-85
2023/04/06 12:46:50;;;;;;;18.63;12.80;;;13.90;59.40;;;;;;5056632;28;20075;-85
2023/04/06 12:49:18;;;;;;;19.17;12.63;;;14.00;59.30;;;;;;5075067;28;20021;-85